sensor_id;sensor_type;location;lat;lon;timestamp;P1;durP1;ratioP1;P2;durP2;ratioP2
49828;SDS011;35723;51.194;5.112;2022-12-20T00:00:15;9.43;;;3.10;;
49828;SDS011;35723;51.194;5.112;2022-12-20T00:02:41;7.38;;;3.30;;
49828;SDS011;35723;51.194;5.112;2022-12-20T00:05:07;6.60;;;3.20;;
49828;SDS011;35723;51.194;5.112;2022-12-20T00:07:33;7.15;;;3.22;;
49828;SDS011;35723;51.194;5.112;2022-12-20T00:09:59;8.05;;;3.20;;
49828;SDS011;35723;51.194;5.112;2022-12-20T00:12:24;7.05;;;3.00;;
49828;SDS011;35723;51.194;5.112;2022-12-20T00:14:50;7.22;;;3.20;;
49828;SDS011;35723;51.194;5.112;2022-12-20T00:17:16;6.65;;;2.88;;
49828;SDS011;35723;51.194;5.112;2022-12-20T00:19:44;6.47;;;3.00;;
49828;SDS011;35723;51.194;5.112;2022-12-20T00:22:10;7.05;;;3.17;;
49828;SDS011;35723;51.194;5.112;2022-12-20T00:24:36;6.70;;;3.30;;
49828;SDS011;35723;51.194;5.112;2022-12-20T00:27:01;6.82;;;2.90;;
49828;SDS011;35723;51.194;5.112;2022-12-20T00:29:27;8.40;;;3.10;;
49828;SDS011;35723;51.194;5.112;2022-12-20T00:31:53;8.10;;;3.00;;
49828;SDS011;35723;51.194;5.112;2022-12-20T00:34:18;9.23;;;3.30;;
49828;SDS011;35723;51.194;5.112;2022-12-20T00:36:44;7.68;;;3.00;;
49828;SDS011;35723;51.194;5.112;2022-12-20T00:39:10;8.70;;;3.17;;
49828;SDS011;35723;51.194;5.112;2022-12-20T00:41:36;7.03;;;3.20;;
49828;SDS011;35723;51.194;5.112;2022-12-20T00:44:02;9.65;;;3.20;;
49828;SDS011;35723;51.194;5.112;2022-12-20T00:46:29;7.47;;;3.25;;
49828;SDS011;35723;51.194;5.112;2022-12-20T00:48:55;9.00;;;3.20;;
49828;SDS011;35723;51.194;5.112;2022-12-20T00:51:22;11.43;;;3.70;;
49828;SDS011;35723;51.194;5.112;2022-12-20T00:53:50;8.75;;;3.22;;
49828;SDS011;35723;51.194;5.112;2022-12-20T00:56:16;8.35;;;3.30;;
49828;SDS011;35723;51.194;5.112;2022-12-20T00:58:43;8.82;;;3.40;;
49828;SDS011;35723;51.194;5.112;2022-12-20T01:01:17;7.60;;;3.45;;
49828;SDS011;35723;51.194;5.112;2022-12-20T01:03:42;10.40;;;3.50;;
49828;SDS011;35723;51.194;5.112;2022-12-20T01:06:08;10.55;;;3.40;;
49828;SDS011;35723;51.194;5.112;2022-12-20T01:08:34;10.75;;;3.55;;
49828;SDS011;35723;51.194;5.112;2022-12-20T01:11:00;10.98;;;3.42;;
49828;SDS011;35723;51.194;5.112;2022-12-20T01:13:28;8.32;;;3.60;;
49828;SDS011;35723;51.194;5.112;2022-12-20T01:15:54;9.40;;;3.70;;
49828;SDS011;35723;51.194;5.112;2022-12-20T01:18:20;10.10;;;3.97;;
49828;SDS011;35723;51.194;5.112;2022-12-20T01:20:47;7.25;;;3.47;;
49828;SDS011;35723;51.194;5.112;2022-12-20T01:23:12;11.70;;;4.00;;
49828;SDS011;35723;51.194;5.112;2022-12-20T01:25:38;10.60;;;3.95;;
49828;SDS011;35723;51.194;5.112;2022-12-20T01:28:04;9.93;;;4.10;;
49828;SDS011;35723;51.194;5.112;2022-12-20T01:30:29;8.73;;;4.15;;
49828;SDS011;35723;51.194;5.112;2022-12-20T01:32:55;13.73;;;4.50;;
49828;SDS011;35723;51.194;5.112;2022-12-20T01:35:21;9.27;;;4.60;;
49828;SDS011;35723;51.194;5.112;2022-12-20T01:37:47;11.65;;;4.82;;
49828;SDS011;35723;51.194;5.112;2022-12-20T01:40:12;10.88;;;4.90;;
49828;SDS011;35723;51.194;5.112;2022-12-20T01:42:38;12.02;;;4.82;;
49828;SDS011;35723;51.194;5.112;2022-12-20T01:45:04;12.70;;;5.53;;
49828;SDS011;35723;51.194;5.112;2022-12-20T01:47:37;20.33;;;9.50;;
49828;SDS011;35723;51.194;5.112;2022-12-20T01:50:04;20.27;;;10.23;;
49828;SDS011;35723;51.194;5.112;2022-12-20T01:52:32;17.98;;;9.45;;
49828;SDS011;35723;51.194;5.112;2022-12-20T01:55:11;18.40;;;8.55;;
49828;SDS011;35723;51.194;5.112;2022-12-20T01:58:00;14.05;;;6.57;;
49828;SDS011;35723;51.194;5.112;2022-12-20T02:00:28;11.30;;;6.03;;
49828;SDS011;35723;51.194;5.112;2022-12-20T02:02:54;15.98;;;5.68;;
49828;SDS011;35723;51.194;5.112;2022-12-20T02:05:24;12.85;;;5.07;;
49828;SDS011;35723;51.194;5.112;2022-12-20T02:07:51;16.33;;;5.47;;
49828;SDS011;35723;51.194;5.112;2022-12-20T02:10:18;8.98;;;4.80;;
49828;SDS011;35723;51.194;5.112;2022-12-20T02:12:48;12.30;;;4.97;;
49828;SDS011;35723;51.194;5.112;2022-12-20T02:15:31;13.32;;;5.20;;
49828;SDS011;35723;51.194;5.112;2022-12-20T02:18:24;11.93;;;4.70;;
49828;SDS011;35723;51.194;5.112;2022-12-20T02:21:10;12.63;;;4.75;;
49828;SDS011;35723;51.194;5.112;2022-12-20T02:29:20;10.98;;;4.60;;
49828;SDS011;35723;51.194;5.112;2022-12-20T02:31:57;11.93;;;4.95;;
49828;SDS011;35723;51.194;5.112;2022-12-20T02:34:41;12.77;;;4.90;;
49828;SDS011;35723;51.194;5.112;2022-12-20T02:37:08;10.10;;;4.90;;
49828;SDS011;35723;51.194;5.112;2022-12-20T02:39:35;11.10;;;4.80;;
49828;SDS011;35723;51.194;5.112;2022-12-20T02:42:03;11.93;;;4.80;;
49828;SDS011;35723;51.194;5.112;2022-12-20T02:44:35;9.85;;;4.40;;
49828;SDS011;35723;51.194;5.112;2022-12-20T02:47:25;10.35;;;4.50;;
49828;SDS011;35723;51.194;5.112;2022-12-20T02:49:55;11.52;;;4.95;;
49828;SDS011;35723;51.194;5.112;2022-12-20T02:52:22;10.55;;;4.57;;
49828;SDS011;35723;51.194;5.112;2022-12-20T02:54:51;10.70;;;4.60;;
49828;SDS011;35723;51.194;5.112;2022-12-20T03:00:11;10.95;;;4.20;;
49828;SDS011;35723;51.194;5.112;2022-12-20T03:02:43;9.25;;;3.83;;
49828;SDS011;35723;51.194;5.112;2022-12-20T03:05:28;7.15;;;3.25;;
49828;SDS011;35723;51.194;5.112;2022-12-20T03:07:54;8.13;;;3.63;;
49828;SDS011;35723;51.194;5.112;2022-12-20T03:10:20;10.10;;;3.70;;
49828;SDS011;35723;51.194;5.112;2022-12-20T03:12:46;8.35;;;3.60;;
49828;SDS011;35723;51.194;5.112;2022-12-20T03:15:12;10.10;;;3.60;;
49828;SDS011;35723;51.194;5.112;2022-12-20T03:17:38;5.10;;;2.90;;
49828;SDS011;35723;51.194;5.112;2022-12-20T03:20:05;10.32;;;3.40;;
49828;SDS011;35723;51.194;5.112;2022-12-20T03:22:31;9.48;;;3.08;;
49828;SDS011;35723;51.194;5.112;2022-12-20T03:24:58;6.65;;;3.08;;
49828;SDS011;35723;51.194;5.112;2022-12-20T03:27:25;7.22;;;3.00;;
49828;SDS011;35723;51.194;5.112;2022-12-20T03:29:52;7.85;;;3.30;;
49828;SDS011;35723;51.194;5.112;2022-12-20T03:32:18;9.32;;;3.20;;
49828;SDS011;35723;51.194;5.112;2022-12-20T03:34:44;7.53;;;3.35;;
49828;SDS011;35723;51.194;5.112;2022-12-20T03:37:09;6.00;;;2.90;;
49828;SDS011;35723;51.194;5.112;2022-12-20T03:39:35;10.05;;;3.15;;
49828;SDS011;35723;51.194;5.112;2022-12-20T03:42:01;9.18;;;3.42;;
49828;SDS011;35723;51.194;5.112;2022-12-20T03:44:27;10.13;;;3.45;;
49828;SDS011;35723;51.194;5.112;2022-12-20T03:46:52;9.52;;;3.40;;
49828;SDS011;35723;51.194;5.112;2022-12-20T03:49:18;8.30;;;3.30;;
49828;SDS011;35723;51.194;5.112;2022-12-20T03:51:43;9.65;;;3.60;;
49828;SDS011;35723;51.194;5.112;2022-12-20T03:54:09;7.75;;;3.30;;
49828;SDS011;35723;51.194;5.112;2022-12-20T03:56:35;7.82;;;3.00;;
49828;SDS011;35723;51.194;5.112;2022-12-20T03:59:00;9.82;;;3.28;;
49828;SDS011;35723;51.194;5.112;2022-12-20T04:01:27;8.40;;;3.67;;
49828;SDS011;35723;51.194;5.112;2022-12-20T04:03:53;7.50;;;3.45;;
49828;SDS011;35723;51.194;5.112;2022-12-20T04:06:20;13.40;;;4.38;;
49828;SDS011;35723;51.194;5.112;2022-12-20T04:08:46;9.23;;;4.32;;
49828;SDS011;35723;51.194;5.112;2022-12-20T04:11:12;10.10;;;4.28;;
49828;SDS011;35723;51.194;5.112;2022-12-20T04:13:50;9.02;;;4.07;;
49828;SDS011;35723;51.194;5.112;2022-12-20T04:16:22;9.40;;;3.88;;
49828;SDS011;35723;51.194;5.112;2022-12-20T04:18:49;9.30;;;3.55;;
49828;SDS011;35723;51.194;5.112;2022-12-20T04:21:18;11.93;;;3.67;;
49828;SDS011;35723;51.194;5.112;2022-12-20T04:23:50;6.38;;;3.53;;
49828;SDS011;35723;51.194;5.112;2022-12-20T04:26:16;7.20;;;3.20;;
49828;SDS011;35723;51.194;5.112;2022-12-20T04:28:42;11.68;;;3.38;;
49828;SDS011;35723;51.194;5.112;2022-12-20T04:31:08;13.23;;;3.63;;
49828;SDS011;35723;51.194;5.112;2022-12-20T04:33:34;8.90;;;3.28;;
49828;SDS011;35723;51.194;5.112;2022-12-20T04:36:00;8.40;;;3.38;;
49828;SDS011;35723;51.194;5.112;2022-12-20T04:38:26;7.88;;;3.13;;
49828;SDS011;35723;51.194;5.112;2022-12-20T04:40:53;10.80;;;3.33;;
49828;SDS011;35723;51.194;5.112;2022-12-20T04:43:19;8.55;;;3.22;;
49828;SDS011;35723;51.194;5.112;2022-12-20T04:45:46;11.02;;;3.60;;
49828;SDS011;35723;51.194;5.112;2022-12-20T04:48:13;8.90;;;3.30;;
49828;SDS011;35723;51.194;5.112;2022-12-20T04:50:39;8.88;;;3.50;;
49828;SDS011;35723;51.194;5.112;2022-12-20T04:53:05;9.07;;;3.47;;
49828;SDS011;35723;51.194;5.112;2022-12-20T04:55:49;11.30;;;3.75;;
49828;SDS011;35723;51.194;5.112;2022-12-20T04:58:15;9.02;;;3.80;;
49828;SDS011;35723;51.194;5.112;2022-12-20T05:00:41;11.40;;;4.40;;
49828;SDS011;35723;51.194;5.112;2022-12-20T05:03:06;10.00;;;4.63;;
49828;SDS011;35723;51.194;5.112;2022-12-20T05:05:32;13.25;;;5.93;;
49828;SDS011;35723;51.194;5.112;2022-12-20T05:07:57;16.65;;;7.32;;
49828;SDS011;35723;51.194;5.112;2022-12-20T05:10:23;17.55;;;6.90;;
49828;SDS011;35723;51.194;5.112;2022-12-20T05:12:49;14.13;;;6.47;;
49828;SDS011;35723;51.194;5.112;2022-12-20T05:15:15;14.85;;;6.05;;
49828;SDS011;35723;51.194;5.112;2022-12-20T05:17:40;17.40;;;5.85;;
49828;SDS011;35723;51.194;5.112;2022-12-20T05:20:06;12.38;;;5.05;;
49828;SDS011;35723;51.194;5.112;2022-12-20T05:22:32;13.57;;;4.32;;
49828;SDS011;35723;51.194;5.112;2022-12-20T05:25:16;11.77;;;3.88;;
49828;SDS011;35723;51.194;5.112;2022-12-20T05:28:00;10.05;;;3.90;;
49828;SDS011;35723;51.194;5.112;2022-12-20T05:30:26;11.95;;;3.60;;
49828;SDS011;35723;51.194;5.112;2022-12-20T05:32:55;11.18;;;3.60;;
49828;SDS011;35723;51.194;5.112;2022-12-20T05:35:20;11.27;;;3.60;;
49828;SDS011;35723;51.194;5.112;2022-12-20T05:37:46;9.63;;;3.50;;
49828;SDS011;35723;51.194;5.112;2022-12-20T05:40:11;8.82;;;3.42;;
49828;SDS011;35723;51.194;5.112;2022-12-20T05:42:37;10.20;;;3.38;;
49828;SDS011;35723;51.194;5.112;2022-12-20T05:45:03;8.10;;;3.22;;
49828;SDS011;35723;51.194;5.112;2022-12-20T05:47:30;12.32;;;3.58;;
49828;SDS011;35723;51.194;5.112;2022-12-20T05:49:58;10.20;;;3.75;;
49828;SDS011;35723;51.194;5.112;2022-12-20T05:52:24;6.97;;;3.10;;
49828;SDS011;35723;51.194;5.112;2022-12-20T05:54:50;9.23;;;3.38;;
49828;SDS011;35723;51.194;5.112;2022-12-20T05:57:16;9.20;;;3.67;;
49828;SDS011;35723;51.194;5.112;2022-12-20T05:59:42;8.25;;;3.30;;
49828;SDS011;35723;51.194;5.112;2022-12-20T06:02:08;9.45;;;3.47;;
49828;SDS011;35723;51.194;5.112;2022-12-20T06:04:34;6.72;;;3.67;;
49828;SDS011;35723;51.194;5.112;2022-12-20T06:07:01;8.98;;;3.58;;
49828;SDS011;35723;51.194;5.112;2022-12-20T06:09:26;11.13;;;3.80;;
49828;SDS011;35723;51.194;5.112;2022-12-20T06:11:52;9.55;;;4.25;;
49828;SDS011;35723;51.194;5.112;2022-12-20T06:14:18;10.98;;;3.90;;
49828;SDS011;35723;51.194;5.112;2022-12-20T06:16:43;8.80;;;3.92;;
49828;SDS011;35723;51.194;5.112;2022-12-20T06:19:09;11.25;;;4.25;;
49828;SDS011;35723;51.194;5.112;2022-12-20T06:21:35;9.35;;;4.00;;
49828;SDS011;35723;51.194;5.112;2022-12-20T06:24:00;8.45;;;3.80;;
49828;SDS011;35723;51.194;5.112;2022-12-20T06:26:26;9.32;;;3.45;;
49828;SDS011;35723;51.194;5.112;2022-12-20T06:28:52;10.60;;;3.58;;
49828;SDS011;35723;51.194;5.112;2022-12-20T06:31:20;9.60;;;3.85;;
49828;SDS011;35723;51.194;5.112;2022-12-20T06:33:46;9.45;;;3.40;;
49828;SDS011;35723;51.194;5.112;2022-12-20T06:36:12;8.38;;;3.35;;
49828;SDS011;35723;51.194;5.112;2022-12-20T06:38:37;6.28;;;2.90;;
49828;SDS011;35723;51.194;5.112;2022-12-20T06:41:03;7.35;;;3.00;;
49828;SDS011;35723;51.194;5.112;2022-12-20T06:43:29;6.43;;;2.95;;
49828;SDS011;35723;51.194;5.112;2022-12-20T06:45:54;6.50;;;2.70;;
49828;SDS011;35723;51.194;5.112;2022-12-20T06:48:20;7.18;;;2.75;;
49828;SDS011;35723;51.194;5.112;2022-12-20T06:50:48;7.03;;;2.75;;
49828;SDS011;35723;51.194;5.112;2022-12-20T06:53:14;11.88;;;2.90;;
49828;SDS011;35723;51.194;5.112;2022-12-20T06:55:40;6.00;;;2.60;;
49828;SDS011;35723;51.194;5.112;2022-12-20T06:58:06;12.10;;;2.85;;
49828;SDS011;35723;51.194;5.112;2022-12-20T07:00:32;11.40;;;2.70;;
49828;SDS011;35723;51.194;5.112;2022-12-20T07:02:58;4.63;;;2.30;;
49828;SDS011;35723;51.194;5.112;2022-12-20T07:05:23;5.53;;;2.50;;
49828;SDS011;35723;51.194;5.112;2022-12-20T07:07:49;8.88;;;2.60;;
49828;SDS011;35723;51.194;5.112;2022-12-20T07:10:15;9.15;;;2.60;;
49828;SDS011;35723;51.194;5.112;2022-12-20T07:12:40;6.22;;;2.83;;
49828;SDS011;35723;51.194;5.112;2022-12-20T07:15:06;8.02;;;2.60;;
49828;SDS011;35723;51.194;5.112;2022-12-20T07:17:32;6.95;;;2.70;;
49828;SDS011;35723;51.194;5.112;2022-12-20T07:19:58;5.47;;;2.50;;
49828;SDS011;35723;51.194;5.112;2022-12-20T07:22:24;7.05;;;2.72;;
49828;SDS011;35723;51.194;5.112;2022-12-20T07:24:51;8.10;;;3.50;;
49828;SDS011;35723;51.194;5.112;2022-12-20T07:27:16;8.07;;;3.58;;
49828;SDS011;35723;51.194;5.112;2022-12-20T07:29:42;10.57;;;3.78;;
49828;SDS011;35723;51.194;5.112;2022-12-20T07:32:08;11.27;;;4.10;;
49828;SDS011;35723;51.194;5.112;2022-12-20T07:34:36;9.95;;;4.32;;
49828;SDS011;35723;51.194;5.112;2022-12-20T07:37:01;10.57;;;3.90;;
49828;SDS011;35723;51.194;5.112;2022-12-20T07:39:27;9.63;;;3.90;;
49828;SDS011;35723;51.194;5.112;2022-12-20T07:41:53;7.82;;;3.60;;
49828;SDS011;35723;51.194;5.112;2022-12-20T07:44:19;8.25;;;3.00;;
49828;SDS011;35723;51.194;5.112;2022-12-20T07:46:46;5.78;;;2.50;;
49828;SDS011;35723;51.194;5.112;2022-12-20T07:49:11;6.07;;;2.90;;
49828;SDS011;35723;51.194;5.112;2022-12-20T07:51:39;6.72;;;2.63;;
49828;SDS011;35723;51.194;5.112;2022-12-20T07:54:17;6.90;;;2.33;;
49828;SDS011;35723;51.194;5.112;2022-12-20T07:56:50;6.85;;;2.67;;
49828;SDS011;35723;51.194;5.112;2022-12-20T07:59:22;8.98;;;2.70;;
49828;SDS011;35723;51.194;5.112;2022-12-20T08:01:52;5.93;;;2.72;;
49828;SDS011;35723;51.194;5.112;2022-12-20T08:04:20;8.68;;;2.72;;
49828;SDS011;35723;51.194;5.112;2022-12-20T08:06:48;9.10;;;2.72;;
49828;SDS011;35723;51.194;5.112;2022-12-20T08:09:16;7.72;;;2.88;;
49828;SDS011;35723;51.194;5.112;2022-12-20T08:11:43;5.57;;;2.72;;
49828;SDS011;35723;51.194;5.112;2022-12-20T08:14:12;6.45;;;2.47;;
49828;SDS011;35723;51.194;5.112;2022-12-20T08:16:38;6.97;;;2.60;;
49828;SDS011;35723;51.194;5.112;2022-12-20T08:19:03;7.93;;;2.80;;
49828;SDS011;35723;51.194;5.112;2022-12-20T08:21:29;11.48;;;2.85;;
49828;SDS011;35723;51.194;5.112;2022-12-20T08:23:55;8.68;;;3.00;;
49828;SDS011;35723;51.194;5.112;2022-12-20T08:26:21;7.18;;;3.03;;
49828;SDS011;35723;51.194;5.112;2022-12-20T08:28:47;9.48;;;2.88;;
49828;SDS011;35723;51.194;5.112;2022-12-20T08:31:12;9.38;;;3.20;;
49828;SDS011;35723;51.194;5.112;2022-12-20T08:33:38;8.70;;;3.20;;
49828;SDS011;35723;51.194;5.112;2022-12-20T08:36:05;11.35;;;3.22;;
49828;SDS011;35723;51.194;5.112;2022-12-20T08:38:34;10.68;;;3.17;;
49828;SDS011;35723;51.194;5.112;2022-12-20T08:41:05;8.32;;;3.05;;
49828;SDS011;35723;51.194;5.112;2022-12-20T08:43:33;8.82;;;3.08;;
49828;SDS011;35723;51.194;5.112;2022-12-20T08:45:59;9.43;;;3.60;;
49828;SDS011;35723;51.194;5.112;2022-12-20T08:48:25;9.52;;;3.65;;
49828;SDS011;35723;51.194;5.112;2022-12-20T08:50:58;8.55;;;3.40;;
49828;SDS011;35723;51.194;5.112;2022-12-20T08:53:26;7.47;;;3.00;;
49828;SDS011;35723;51.194;5.112;2022-12-20T08:55:53;10.68;;;3.20;;
49828;SDS011;35723;51.194;5.112;2022-12-20T08:58:26;11.27;;;3.55;;
49828;SDS011;35723;51.194;5.112;2022-12-20T09:00:52;12.15;;;3.70;;
49828;SDS011;35723;51.194;5.112;2022-12-20T09:03:17;15.45;;;3.90;;
49828;SDS011;35723;51.194;5.112;2022-12-20T09:05:44;9.43;;;3.70;;
49828;SDS011;35723;51.194;5.112;2022-12-20T09:08:10;8.38;;;3.78;;
49828;SDS011;35723;51.194;5.112;2022-12-20T09:10:36;9.25;;;3.60;;
49828;SDS011;35723;51.194;5.112;2022-12-20T09:13:02;9.75;;;3.92;;
49828;SDS011;35723;51.194;5.112;2022-12-20T09:15:28;9.88;;;4.10;;
49828;SDS011;35723;51.194;5.112;2022-12-20T09:17:53;14.23;;;3.72;;
49828;SDS011;35723;51.194;5.112;2022-12-20T09:20:19;8.05;;;3.20;;
49828;SDS011;35723;51.194;5.112;2022-12-20T09:22:45;9.57;;;3.50;;
49828;SDS011;35723;51.194;5.112;2022-12-20T09:25:10;9.00;;;3.30;;
49828;SDS011;35723;51.194;5.112;2022-12-20T09:27:36;10.45;;;3.40;;
49828;SDS011;35723;51.194;5.112;2022-12-20T09:30:02;9.50;;;3.33;;
49828;SDS011;35723;51.194;5.112;2022-12-20T09:32:28;7.38;;;3.00;;
49828;SDS011;35723;51.194;5.112;2022-12-20T09:34:54;10.93;;;3.10;;
49828;SDS011;35723;51.194;5.112;2022-12-20T09:37:20;7.65;;;3.10;;
49828;SDS011;35723;51.194;5.112;2022-12-20T09:39:47;8.02;;;3.30;;
49828;SDS011;35723;51.194;5.112;2022-12-20T09:42:14;9.50;;;3.20;;
49828;SDS011;35723;51.194;5.112;2022-12-20T09:44:48;7.18;;;2.80;;
49828;SDS011;35723;51.194;5.112;2022-12-20T09:49:45;7.00;;;2.85;;
49828;SDS011;35723;51.194;5.112;2022-12-20T09:54:49;9.27;;;3.20;;
49828;SDS011;35723;51.194;5.112;2022-12-20T10:00:23;9.38;;;3.25;;
49828;SDS011;35723;51.194;5.112;2022-12-20T10:02:49;9.70;;;3.33;;
49828;SDS011;35723;51.194;5.112;2022-12-20T10:05:16;7.55;;;3.28;;
49828;SDS011;35723;51.194;5.112;2022-12-20T10:08:04;7.93;;;3.40;;
49828;SDS011;35723;51.194;5.112;2022-12-20T10:13:31;8.70;;;3.30;;
49828;SDS011;35723;51.194;5.112;2022-12-20T10:16:18;8.95;;;3.30;;
49828;SDS011;35723;51.194;5.112;2022-12-20T10:24:18;11.05;;;4.20;;
49828;SDS011;35723;51.194;5.112;2022-12-20T10:26:48;11.55;;;3.53;;
49828;SDS011;35723;51.194;5.112;2022-12-20T10:29:15;9.27;;;3.83;;
49828;SDS011;35723;51.194;5.112;2022-12-20T10:31:42;8.23;;;3.40;;
49828;SDS011;35723;51.194;5.112;2022-12-20T10:34:07;9.82;;;3.47;;
49828;SDS011;35723;51.194;5.112;2022-12-20T10:36:34;10.32;;;3.80;;
49828;SDS011;35723;51.194;5.112;2022-12-20T10:39:04;8.02;;;3.72;;
49828;SDS011;35723;51.194;5.112;2022-12-20T10:44:05;10.75;;;3.70;;
49828;SDS011;35723;51.194;5.112;2022-12-20T10:46:53;13.95;;;4.18;;
49828;SDS011;35723;51.194;5.112;2022-12-20T10:51:53;9.48;;;4.00;;
49828;SDS011;35723;51.194;5.112;2022-12-20T10:54:22;11.65;;;4.00;;
49828;SDS011;35723;51.194;5.112;2022-12-20T10:59:41;12.40;;;4.25;;
49828;SDS011;35723;51.194;5.112;2022-12-20T11:02:43;13.48;;;4.78;;
49828;SDS011;35723;51.194;5.112;2022-12-20T11:05:16;12.60;;;4.68;;
49828;SDS011;35723;51.194;5.112;2022-12-20T11:07:56;9.25;;;4.20;;
49828;SDS011;35723;51.194;5.112;2022-12-20T11:10:41;12.57;;;4.63;;
49828;SDS011;35723;51.194;5.112;2022-12-20T11:13:17;11.85;;;4.68;;
49828;SDS011;35723;51.194;5.112;2022-12-20T11:15:50;10.68;;;4.20;;
49828;SDS011;35723;51.194;5.112;2022-12-20T11:26:15;11.93;;;4.78;;
49828;SDS011;35723;51.194;5.112;2022-12-20T11:39:33;11.18;;;3.85;;
49828;SDS011;35723;51.194;5.112;2022-12-20T11:53:31;11.48;;;3.92;;
49828;SDS011;35723;51.194;5.112;2022-12-20T11:56:16;11.25;;;4.10;;
49828;SDS011;35723;51.194;5.112;2022-12-20T11:58:50;10.90;;;4.63;;
49828;SDS011;35723;51.194;5.112;2022-12-20T12:01:39;11.05;;;4.07;;
49828;SDS011;35723;51.194;5.112;2022-12-20T12:04:26;9.68;;;3.92;;
49828;SDS011;35723;51.194;5.112;2022-12-20T12:07:17;15.55;;;4.30;;
49828;SDS011;35723;51.194;5.112;2022-12-20T12:12:25;16.42;;;4.47;;
49828;SDS011;35723;51.194;5.112;2022-12-20T12:25:45;10.88;;;4.13;;
49828;SDS011;35723;51.194;5.112;2022-12-20T12:28:11;8.85;;;3.80;;
49828;SDS011;35723;51.194;5.112;2022-12-20T12:30:40;13.38;;;4.22;;
49828;SDS011;35723;51.194;5.112;2022-12-20T12:33:16;12.35;;;4.20;;
49828;SDS011;35723;51.194;5.112;2022-12-20T12:35:56;10.73;;;4.22;;
49828;SDS011;35723;51.194;5.112;2022-12-20T12:46:50;13.50;;;4.93;;
49828;SDS011;35723;51.194;5.112;2022-12-20T12:49:23;12.38;;;4.43;;
49828;SDS011;35723;51.194;5.112;2022-12-20T12:51:53;12.88;;;4.40;;
49828;SDS011;35723;51.194;5.112;2022-12-20T12:57:01;15.00;;;4.60;;
49828;SDS011;35723;51.194;5.112;2022-12-20T13:09:56;12.13;;;4.78;;
49828;SDS011;35723;51.194;5.112;2022-12-20T13:15:01;10.65;;;4.45;;
49828;SDS011;35723;51.194;5.112;2022-12-20T13:21:15;11.20;;;4.43;;
49828;SDS011;35723;51.194;5.112;2022-12-20T13:26:58;11.52;;;4.32;;
49828;SDS011;35723;51.194;5.112;2022-12-20T13:29:26;13.45;;;4.60;;
49828;SDS011;35723;51.194;5.112;2022-12-20T13:31:58;11.13;;;4.40;;
49828;SDS011;35723;51.194;5.112;2022-12-20T13:37:27;15.07;;;4.47;;
49828;SDS011;35723;51.194;5.112;2022-12-20T13:40:17;13.05;;;4.65;;
49828;SDS011;35723;51.194;5.112;2022-12-20T13:42:56;12.57;;;4.93;;
49828;SDS011;35723;51.194;5.112;2022-12-20T13:45:27;13.27;;;4.93;;
49828;SDS011;35723;51.194;5.112;2022-12-20T13:47:54;18.75;;;4.78;;
49828;SDS011;35723;51.194;5.112;2022-12-20T13:50:35;15.25;;;4.97;;
49828;SDS011;35723;51.194;5.112;2022-12-20T13:53:04;11.73;;;5.07;;
49828;SDS011;35723;51.194;5.112;2022-12-20T13:58:19;12.43;;;4.95;;
49828;SDS011;35723;51.194;5.112;2022-12-20T14:00:48;12.52;;;4.50;;
49828;SDS011;35723;51.194;5.112;2022-12-20T14:03:25;13.40;;;4.30;;
49828;SDS011;35723;51.194;5.112;2022-12-20T14:06:03;13.20;;;4.35;;
49828;SDS011;35723;51.194;5.112;2022-12-20T14:08:34;12.77;;;4.72;;
49828;SDS011;35723;51.194;5.112;2022-12-20T14:11:10;13.57;;;4.63;;
49828;SDS011;35723;51.194;5.112;2022-12-20T14:13:37;11.30;;;4.60;;
49828;SDS011;35723;51.194;5.112;2022-12-20T14:16:09;13.10;;;4.60;;
49828;SDS011;35723;51.194;5.112;2022-12-20T14:18:38;11.20;;;4.22;;
49828;SDS011;35723;51.194;5.112;2022-12-20T14:21:04;10.35;;;4.45;;
49828;SDS011;35723;51.194;5.112;2022-12-20T14:23:41;15.82;;;5.53;;
49828;SDS011;35723;51.194;5.112;2022-12-20T14:29:15;14.93;;;5.05;;
49828;SDS011;35723;51.194;5.112;2022-12-20T14:31:43;11.88;;;4.40;;
49828;SDS011;35723;51.194;5.112;2022-12-20T14:42:37;15.70;;;5.40;;
49828;SDS011;35723;51.194;5.112;2022-12-20T14:47:40;14.35;;;5.25;;
49828;SDS011;35723;51.194;5.112;2022-12-20T14:50:21;14.00;;;5.18;;
49828;SDS011;35723;51.194;5.112;2022-12-20T14:52:53;16.98;;;5.70;;
49828;SDS011;35723;51.194;5.112;2022-12-20T14:55:23;14.57;;;5.65;;
49828;SDS011;35723;51.194;5.112;2022-12-20T14:57:54;15.15;;;5.55;;
49828;SDS011;35723;51.194;5.112;2022-12-20T15:00:25;12.48;;;5.13;;
49828;SDS011;35723;51.194;5.112;2022-12-20T15:13:33;17.85;;;6.75;;
49828;SDS011;35723;51.194;5.112;2022-12-20T15:16:13;20.80;;;6.97;;
49828;SDS011;35723;51.194;5.112;2022-12-20T15:18:43;15.60;;;6.80;;
49828;SDS011;35723;51.194;5.112;2022-12-20T15:23:45;16.52;;;6.32;;
49828;SDS011;35723;51.194;5.112;2022-12-20T15:26:14;16.30;;;6.88;;
49828;SDS011;35723;51.194;5.112;2022-12-20T15:28:40;17.45;;;6.95;;
49828;SDS011;35723;51.194;5.112;2022-12-20T15:31:08;17.65;;;6.50;;
49828;SDS011;35723;51.194;5.112;2022-12-20T15:33:36;13.80;;;6.10;;
49828;SDS011;35723;51.194;5.112;2022-12-20T15:36:03;15.25;;;5.97;;
49828;SDS011;35723;51.194;5.112;2022-12-20T15:38:29;14.90;;;6.13;;
49828;SDS011;35723;51.194;5.112;2022-12-20T15:40:58;13.73;;;5.70;;
49828;SDS011;35723;51.194;5.112;2022-12-20T15:43:27;14.57;;;5.70;;
49828;SDS011;35723;51.194;5.112;2022-12-20T15:45:55;18.55;;;6.68;;
49828;SDS011;35723;51.194;5.112;2022-12-20T15:48:21;15.25;;;6.32;;
49828;SDS011;35723;51.194;5.112;2022-12-20T15:50:54;14.82;;;6.13;;
49828;SDS011;35723;51.194;5.112;2022-12-20T15:53:31;18.85;;;6.60;;
49828;SDS011;35723;51.194;5.112;2022-12-20T15:55:58;17.73;;;6.57;;
49828;SDS011;35723;51.194;5.112;2022-12-20T15:58:25;12.40;;;5.70;;
49828;SDS011;35723;51.194;5.112;2022-12-20T16:00:56;15.18;;;5.85;;
49828;SDS011;35723;51.194;5.112;2022-12-20T16:03:25;13.77;;;5.45;;
49828;SDS011;35723;51.194;5.112;2022-12-20T16:05:56;13.63;;;5.65;;
49828;SDS011;35723;51.194;5.112;2022-12-20T16:08:22;12.70;;;5.45;;
49828;SDS011;35723;51.194;5.112;2022-12-20T16:10:48;15.32;;;5.75;;
49828;SDS011;35723;51.194;5.112;2022-12-20T16:13:17;15.80;;;6.22;;
49828;SDS011;35723;51.194;5.112;2022-12-20T16:18:15;16.08;;;6.22;;
49828;SDS011;35723;51.194;5.112;2022-12-20T16:20:41;14.43;;;5.97;;
49828;SDS011;35723;51.194;5.112;2022-12-20T16:23:13;16.52;;;6.07;;
49828;SDS011;35723;51.194;5.112;2022-12-20T16:25:44;16.17;;;6.22;;
49828;SDS011;35723;51.194;5.112;2022-12-20T16:28:10;14.73;;;5.78;;
49828;SDS011;35723;51.194;5.112;2022-12-20T16:30:36;15.65;;;6.25;;
49828;SDS011;35723;51.194;5.112;2022-12-20T16:33:02;16.55;;;6.60;;
49828;SDS011;35723;51.194;5.112;2022-12-20T16:35:29;16.67;;;6.50;;
49828;SDS011;35723;51.194;5.112;2022-12-20T16:37:56;16.70;;;7.30;;
49828;SDS011;35723;51.194;5.112;2022-12-20T16:40:24;17.45;;;7.47;;
49828;SDS011;35723;51.194;5.112;2022-12-20T16:42:52;17.98;;;7.45;;
49828;SDS011;35723;51.194;5.112;2022-12-20T16:45:20;15.70;;;7.00;;
49828;SDS011;35723;51.194;5.112;2022-12-20T16:47:48;16.38;;;6.97;;
49828;SDS011;35723;51.194;5.112;2022-12-20T16:50:14;16.83;;;7.55;;
49828;SDS011;35723;51.194;5.112;2022-12-20T16:52:40;16.65;;;7.38;;
49828;SDS011;35723;51.194;5.112;2022-12-20T16:55:12;17.77;;;8.05;;
49828;SDS011;35723;51.194;5.112;2022-12-20T16:57:42;14.93;;;7.63;;
49828;SDS011;35723;51.194;5.112;2022-12-20T17:00:09;17.40;;;7.97;;
49828;SDS011;35723;51.194;5.112;2022-12-20T17:02:40;16.60;;;7.35;;
49828;SDS011;35723;51.194;5.112;2022-12-20T17:05:06;19.48;;;8.65;;
49828;SDS011;35723;51.194;5.112;2022-12-20T17:07:35;18.23;;;7.70;;
49828;SDS011;35723;51.194;5.112;2022-12-20T17:10:01;17.98;;;8.15;;
49828;SDS011;35723;51.194;5.112;2022-12-20T17:12:27;17.63;;;8.40;;